Des Arc, Arkansas
Current Conditions -  °F | °C
As of 5:56 PM on Sunday 25 Jan 2015 (Local Time) from KSRC Reporting Station
Overcast Overcast  
Wind Chill: 41°   Ceiling: 4600
Heat Index: 47°   Visibility: 10mi
Dew Point: 33°   Wind: 14mph
Humidity: 59%   Direction: 310°NW
Pressure: 29.9"   Gusts: 20mph
Location:  34.98°N, 91.5°W
Report Text: KSRC 252356Z AUTO 31012G17KT 10SM SCT033 BKN046 OVC060 08/01 A2990 RMK AO2 SLP134 60000 T00830006 10156 20083 51042 TSNO
Loading
Personal Weather Stations






























Interactive Weather Map New forecast layout! Learn more

10-Day Weather Forecast

Advertisements
Track Severe Weather on mobile